Time;durP1;ratioP1;P1;durP2;ratioP2;P2;SDS_P1;SDS_P2;PMS_P1;PMS_P2;Temp;Humidity;BMP_temperature;BMP_pressure;BME280_temperature;BME280_humidity;BME280_pressure;Samples;Min_cycle;Max_cycle;Signal;HPM_P1;HPM_P2
2022/05/02 00:00:41;;;;;;;8.15;5.30;;;10.00;99.90;;;;;;5054395;28;20483;-91
2022/05/02 00:03:07;;;;;;;9.98;5.50;;;10.00;99.90;;;;;;5036305;28;20025;-90
2022/05/02 00:05:32;;;;;;;5.15;4.65;;;10.00;99.90;;;;;;5036170;28;20032;-90
2022/05/02 00:08:23;;;;;;;6.93;4.95;;;10.00;99.90;;;;;;5036308;28;20473;-90
2022/05/02 00:10:48;;;;;;;10.07;5.13;;;10.00;99.90;;;;;;5036065;28;20032;-90
2022/05/02 00:13:16;;;;;;;9.45;5.95;;;10.00;99.90;;;;;;5052392;28;20025;-91
2022/05/02 00:15:41;;;;;;;10.02;6.25;;;10.00;99.90;;;;;;5053880;28;20032;-91
2022/05/02 00:18:33;;;;;;;10.15;6.63;;;9.90;99.90;;;;;;5035831;28;20040;-91
2022/05/02 00:20:59;;;;;;;10.73;6.45;;;9.90;99.90;;;;;;5053893;28;20028;-90
2022/05/02 00:23:28;;;;;;;12.70;6.22;;;9.90;99.90;;;;;;5053900;28;20021;-91
2022/05/02 00:25:54;;;;;;;10.10;6.68;;;9.90;99.90;;;;;;5053609;28;20025;-90
2022/05/02 00:28:21;;;;;;;10.23;6.53;;;9.90;99.90;;;;;;5052452;28;20021;-90
2022/05/02 00:30:47;;;;;;;9.35;6.35;;;9.80;99.90;;;;;;5053650;28;20029;-90
2022/05/02 00:33:18;;;;;;;11.07;5.40;;;9.80;99.90;;;;;;5053511;28;20036;-90
2022/05/02 00:35:44;;;;;;;9.27;4.88;;;9.80;99.90;;;;;;5052166;28;20033;-90
2022/05/02 00:38:53;;;;;;;8.02;4.80;;;9.80;99.90;;;;;;5053598;28;20052;-90
2022/05/02 00:41:20;;;;;;;9.52;4.97;;;9.80;99.90;;;;;;5052571;28;20033;-91
2022/05/02 00:43:58;;;;;;;10.40;5.65;;;9.80;99.90;;;;;;5052945;28;20384;-90
2022/05/02 00:46:26;;;;;;;5.88;4.60;;;9.80;99.90;;;;;;5052097;28;20074;-90
2022/05/02 00:48:58;;;;;;;9.10;5.05;;;9.80;99.90;;;;;;5053472;28;20477;-90
2022/05/02 00:51:24;;;;;;;9.85;5.82;;;9.70;99.90;;;;;;5035366;28;20021;-91
2022/05/02 00:53:57;;;;;;;8.60;5.55;;;9.70;99.90;;;;;;5053385;28;20025;-91
2022/05/02 00:56:23;;;;;;;9.05;5.28;;;9.70;99.90;;;;;;5053127;28;20389;-90
2022/05/02 00:58:52;;;;;;;8.52;5.25;;;9.60;99.90;;;;;;5034836;28;20051;-91
2022/05/02 01:01:17;;;;;;;11.70;5.60;;;9.60;99.90;;;;;;5053185;28;20485;-90
2022/05/02 01:03:51;;;;;;;9.52;5.43;;;9.60;99.90;;;;;;5052993;28;20033;-90
2022/05/02 01:09:02;;;;;;;9.18;6.10;;;9.60;99.90;;;;;;5053375;28;20109;-90
2022/05/02 01:11:29;;;;;;;10.43;6.53;;;9.50;99.90;;;;;;5051623;28;20021;-90
2022/05/02 01:14:14;;;;;;;9.77;6.57;;;9.50;99.90;;;;;;5052322;28;20530;-90
2022/05/02 01:16:43;;;;;;;15.90;6.53;;;9.50;99.90;;;;;;5052668;28;20048;-90
2022/05/02 01:19:08;;;;;;;11.68;6.53;;;9.50;99.90;;;;;;5052938;28;20481;-90
2022/05/02 01:21:44;;;;;;;13.52;7.20;;;9.40;99.90;;;;;;5052821;28;20036;-91
2022/05/02 01:24:09;;;;;;;24.10;7.43;;;9.40;99.90;;;;;;5035054;28;20071;-90
2022/05/02 01:26:59;;;;;;;11.30;7.50;;;9.30;99.90;;;;;;5052842;28;20076;-91
2022/05/02 01:29:24;;;;;;;14.20;7.57;;;9.30;99.90;;;;;;5033849;28;20095;-90
2022/05/02 01:31:57;;;;;;;15.38;7.28;;;9.30;99.90;;;;;;5034806;28;20021;-91
2022/05/02 01:34:22;;;;;;;8.68;6.32;;;9.30;99.90;;;;;;5034532;28;20028;-90
2022/05/02 01:36:51;;;;;;;8.90;6.03;;;9.20;99.90;;;;;;5052640;28;20403;-90
2022/05/02 01:40:01;;;;;;;11.25;6.13;;;9.30;99.90;;;;;;5035030;28;20108;-91
2022/05/02 01:42:27;;;;;;;9.63;6.65;;;9.30;99.90;;;;;;5051294;28;20377;-90
2022/05/02 01:45:04;;;;;;;10.35;6.70;;;9.30;99.90;;;;;;5051960;28;20029;-90
2022/05/02 01:47:30;;;;;;;11.52;6.70;;;9.30;99.90;;;;;;5052785;28;20484;-90
2022/05/02 01:49:58;;;;;;;11.32;7.32;;;9.30;99.90;;;;;;5034491;28;20043;-90
2022/05/02 01:52:23;;;;;;;9.63;6.53;;;9.30;99.90;;;;;;5034531;28;20028;-90
2022/05/02 01:54:53;;;;;;;11.55;6.75;;;9.30;99.90;;;;;;5052479;28;20103;-90
2022/05/02 01:57:18;;;;;;;16.30;7.70;;;9.30;99.90;;;;;;5052323;28;20021;-90
2022/05/02 01:59:45;;;;;;;13.68;7.68;;;9.30;99.90;;;;;;5052275;28;20385;-89
2022/05/02 02:02:10;;;;;;;18.25;8.95;;;9.20;99.90;;;;;;5052412;28;20107;-89
2022/05/02 02:07:20;;;;;;;11.68;6.88;;;9.20;99.90;;;;;;5052494;28;20500;-89
2022/05/02 02:10:00;;;;;;;12.38;7.60;;;9.20;99.90;;;;;;5052253;28;20029;-90
2022/05/02 02:12:25;;;;;;;15.63;7.88;;;9.20;99.90;;;;;;5052162;28;20111;-90
2022/05/02 02:14:59;;;;;;;14.30;8.10;;;9.10;99.90;;;;;;5034132;28;20505;-90
2022/05/02 02:17:25;;;;;;;14.48;8.18;;;9.00;99.90;;;;;;5052349;28;20045;-89
2022/05/02 02:19:52;;;;;;;12.18;8.30;;;8.90;99.90;;;;;;5034274;28;20036;-89
2022/05/02 02:22:18;;;;;;;12.32;8.23;;;8.90;99.90;;;;;;5052162;28;20029;-90
2022/05/02 02:24:55;;;;;;;19.88;8.82;;;8.90;99.90;;;;;;5052032;28;20036;-91
2022/05/02 02:27:21;;;;;;;16.35;8.10;;;8.90;99.90;;;;;;5051080;28;20029;-90
2022/05/02 02:30:03;;;;;;;17.38;8.27;;;8.80;99.90;;;;;;5051016;28;20025;-90
2022/05/02 02:32:29;;;;;;;14.57;8.90;;;8.80;99.90;;;;;;5052153;28;20025;-90
2022/05/02 02:35:04;;;;;;;26.52;11.32;;;8.70;99.90;;;;;;5034356;28;20029;-90
2022/05/02 02:37:29;;;;;;;14.68;7.72;;;8.70;99.90;;;;;;5051184;28;20079;-90
2022/05/02 02:40:14;;;;;;;13.18;8.18;;;8.60;99.90;;;;;;5034072;28;20029;-91
2022/05/02 02:42:40;;;;;;;15.75;7.32;;;8.50;99.90;;;;;;5053561;28;20035;-90
2022/05/02 02:45:06;;;;;;;15.30;7.32;;;8.50;99.90;;;;;;5055148;28;20025;-90
2022/05/02 02:47:32;;;;;;;13.77;8.88;;;8.50;99.90;;;;;;5055444;28;20028;-90
2022/05/02 02:49:59;;;;;;;13.48;8.43;;;8.50;99.90;;;;;;5055259;28;20029;-91
2022/05/02 02:52:24;;;;;;;12.23;7.25;;;8.50;99.90;;;;;;5055426;28;20021;-90
2022/05/02 02:54:52;;;;;;;16.67;8.63;;;8.50;99.90;;;;;;5055325;28;20036;-90
2022/05/02 02:57:18;;;;;;;17.85;9.05;;;8.50;99.90;;;;;;5055599;28;20104;-90
2022/05/02 02:59:54;;;;;;;18.10;8.55;;;8.50;99.90;;;;;;5055014;28;20461;-90
2022/05/02 03:02:20;;;;;;;16.23;9.90;;;8.50;99.90;;;;;;5055359;28;20086;-90
2022/05/02 03:07:31;;;;;;;14.70;9.37;;;8.40;99.90;;;;;;5055418;28;20055;-90
2022/05/02 03:10:15;;;;;;;15.85;9.38;;;8.30;99.90;;;;;;5053909;28;20021;-90
2022/05/02 03:12:41;;;;;;;18.17;8.80;;;8.30;99.90;;;;;;5053573;28;20078;-90
2022/05/02 03:15:08;;;;;;;14.13;8.80;;;8.30;99.90;;;;;;5037330;28;20029;-90
2022/05/02 03:17:34;;;;;;;11.60;7.47;;;8.30;99.90;;;;;;5054848;28;20500;-90
2022/05/02 03:20:06;;;;;;;17.10;8.32;;;8.40;99.90;;;;;;5054997;28;20039;-90
2022/05/02 03:22:31;;;;;;;15.50;9.38;;;8.40;99.90;;;;;;5054826;28;20039;-90
2022/05/02 03:24:58;;;;;;;20.35;10.23;;;8.40;99.90;;;;;;5054723;28;20112;-90
2022/05/02 03:27:24;;;;;;;18.98;8.30;;;8.40;99.90;;;;;;5054031;28;20025;-90
2022/05/02 03:29:55;;;;;;;16.08;8.77;;;8.30;99.90;;;;;;5053434;28;20071;-90
2022/05/02 03:32:21;;;;;;;17.23;10.15;;;8.40;99.90;;;;;;5054795;28;20048;-90
2022/05/02 03:34:47;;;;;;;18.42;10.30;;;8.30;99.90;;;;;;5054804;28;20067;-90
2022/05/02 03:37:14;;;;;;;15.80;9.43;;;8.30;99.90;;;;;;5053183;28;20411;-90
2022/05/02 03:39:45;;;;;;;15.80;9.80;;;8.20;99.90;;;;;;5054596;28;20029;-91
2022/05/02 03:42:10;;;;;;;18.55;9.68;;;8.30;99.90;;;;;;5054679;28;20466;-90
2022/05/02 03:44:36;;;;;;;14.30;10.18;;;8.30;99.90;;;;;;5054017;28;20036;-90
2022/05/02 03:47:02;;;;;;;16.08;10.52;;;8.30;99.90;;;;;;5054429;28;20025;-90
2022/05/02 03:49:28;;;;;;;14.15;10.20;;;8.30;99.90;;;;;;5036572;28;20028;-90
2022/05/02 03:51:54;;;;;;;23.77;10.48;;;8.30;99.90;;;;;;5054195;28;20028;-90
2022/05/02 03:54:21;;;;;;;16.50;10.27;;;8.30;99.90;;;;;;5053649;28;20021;-90
2022/05/02 03:56:47;;;;;;;14.90;10.13;;;8.30;99.90;;;;;;5054325;28;20024;-90
2022/05/02 03:59:24;;;;;;;21.88;11.05;;;8.30;99.90;;;;;;5053902;28;20033;-89
2022/05/02 04:01:49;;;;;;;19.35;11.10;;;8.30;99.90;;;;;;5054116;28;20110;-90
2022/05/02 04:04:21;;;;;;;16.00;10.57;;;8.30;99.90;;;;;;5053727;28;20493;-90
2022/05/02 04:06:48;;;;;;;15.60;11.23;;;8.30;99.90;;;;;;5052713;28;20385;-90
2022/05/02 04:09:14;;;;;;;18.77;10.30;;;8.30;99.90;;;;;;5036300;28;20409;-90
2022/05/02 04:11:41;;;;;;;19.05;10.10;;;8.30;99.90;;;;;;5054013;28;20021;-90
2022/05/02 04:14:29;;;;;;;19.58;11.05;;;8.30;99.90;;;;;;5035950;28;20021;-90
2022/05/02 04:16:55;;;;;;;15.63;9.25;;;8.40;99.90;;;;;;5053659;28;20053;-90
2022/05/02 04:19:27;;;;;;;18.75;10.40;;;8.40;99.90;;;;;;5035968;28;20035;-90
2022/05/02 04:21:53;;;;;;;14.05;8.68;;;8.50;99.90;;;;;;5053677;28;20033;-89
2022/05/02 04:24:28;;;;;;;13.55;7.88;;;8.50;99.90;;;;;;5035800;28;20032;-90
2022/05/02 04:26:54;;;;;;;11.15;6.97;;;8.50;99.90;;;;;;5053658;28;20025;-89
2022/05/02 04:29:21;;;;;;;9.27;6.60;;;8.60;99.90;;;;;;5035717;28;20083;-90
2022/05/02 04:31:47;;;;;;;12.32;7.45;;;8.60;99.90;;;;;;5053744;28;20380;-90
2022/05/02 04:34:14;;;;;;;10.00;6.85;;;8.70;99.90;;;;;;5053217;28;20033;-90
2022/05/02 04:36:39;;;;;;;9.13;6.32;;;8.70;99.90;;;;;;5053484;28;20021;-90
2022/05/02 04:39:07;;;;;;;7.80;6.40;;;8.80;99.90;;;;;;5053501;28;20083;-90
2022/05/02 04:41:33;;;;;;;11.35;7.32;;;8.80;99.90;;;;;;5035516;28;20238;-90
2022/05/02 04:43:59;;;;;;;12.77;8.50;;;8.80;99.90;;;;;;5053133;28;20535;-90
2022/05/02 04:46:26;;;;;;;15.55;8.65;;;8.90;99.90;;;;;;5053314;28;20085;-90
2022/05/02 04:49:19;;;;;;;9.63;7.35;;;8.90;99.90;;;;;;5053075;28;20044;-90
2022/05/02 04:51:45;;;;;;;9.65;7.45;;;8.80;99.90;;;;;;5035152;28;20520;-89
2022/05/02 04:54:11;;;;;;;15.30;8.50;;;8.90;99.90;;;;;;5053198;28;20049;-90
2022/05/02 04:56:37;;;;;;;13.82;8.13;;;8.90;99.90;;;;;;5035293;28;20084;-90
2022/05/02 04:59:03;;;;;;;12.80;8.45;;;8.90;99.90;;;;;;5052785;28;20029;-90
2022/05/02 05:01:29;;;;;;;11.70;7.95;;;8.90;99.90;;;;;;5053086;28;20035;-90
2022/05/02 05:03:59;;;;;;;10.60;8.10;;;9.00;99.90;;;;;;5052465;28;20028;-90
2022/05/02 05:06:24;;;;;;;17.38;8.55;;;9.00;99.90;;;;;;5034566;28;20047;-90
2022/05/02 05:08:53;;;;;;;10.45;7.60;;;9.00;99.90;;;;;;5053034;28;20092;-90
2022/05/02 05:11:31;;;;;;;12.32;7.68;;;9.10;99.90;;;;;;5053155;28;20021;-90
2022/05/02 05:17:54;;;;;;;10.50;6.38;;;9.20;99.90;;;;;;5052747;28;20052;-90
2022/05/02 05:20:55;;;;;;;10.82;6.55;;;9.20;99.90;;;;;;5051651;28;20033;-90
2022/05/02 05:24:00;;;;;;;11.00;7.30;;;9.30;99.90;;;;;;5051464;28;20044;-91
2022/05/02 05:26:41;;;;;;;11.43;7.30;;;9.30;99.90;;;;;;5052782;28;20388;-90
2022/05/02 05:32:28;;;;;;;9.43;6.57;;;9.50;99.90;;;;;;5052647;28;20036;-90
2022/05/02 05:35:07;;;;;;;21.48;9.40;;;9.50;99.90;;;;;;5052011;28;20255;-90
2022/05/02 05:38:17;;;;;;;14.82;7.97;;;9.60;99.90;;;;;;5050962;28;20112;-90
2022/05/02 05:40:47;;;;;;;21.77;8.82;;;9.60;99.90;;;;;;5034753;28;20025;-90
2022/05/02 05:43:34;;;;;;;18.50;8.77;;;9.60;99.90;;;;;;5051876;28;20104;-90
2022/05/02 05:46:15;;;;;;;10.88;6.97;;;9.60;99.90;;;;;;5034630;28;20036;-90
2022/05/02 05:49:08;;;;;;;12.45;7.93;;;9.70;99.90;;;;;;5051184;28;20044;-91
2022/05/02 05:51:42;;;;;;;14.00;7.25;;;9.70;99.90;;;;;;5034538;28;20056;-90
2022/05/02 05:55:01;;;;;;;11.80;7.95;;;9.70;99.90;;;;;;5052450;28;20071;-90
2022/05/02 05:57:49;;;;;;;18.48;9.50;;;9.80;99.90;;;;;;4971337;28;20035;-90
2022/05/02 06:00:16;;;;;;;13.95;8.50;;;9.80;99.90;;;;;;4977468;28;20033;-90
2022/05/02 06:02:50;;;;;;;13.18;8.05;;;9.80;99.90;;;;;;5036850;28;20024;-90
2022/05/02 06:05:39;;;;;;;24.45;9.20;;;9.80;99.90;;;;;;5050950;28;20029;-91
2022/05/02 06:08:08;;;;;;;19.52;9.48;;;9.90;99.90;;;;;;5052590;28;20107;-90
2022/05/02 06:10:55;;;;;;;18.17;10.88;;;9.90;99.90;;;;;;5052472;28;20020;-90
2022/05/02 06:13:22;;;;;;;20.63;10.43;;;9.90;99.90;;;;;;5051185;28;20051;-90
2022/05/02 06:18:37;;;;;;;16.83;9.10;;;10.00;99.90;;;;;;5056300;28;20119;-90
2022/05/02 06:21:15;;;;;;;11.45;7.40;;;10.00;99.90;;;;;;5038426;28;20033;-90
2022/05/02 06:23:47;;;;;;;12.68;8.13;;;10.10;99.90;;;;;;5055876;28;20028;-90
2022/05/02 06:26:14;;;;;;;15.50;8.88;;;10.10;99.90;;;;;;5055732;28;20029;-90
2022/05/02 06:28:43;;;;;;;13.73;7.72;;;10.10;99.90;;;;;;5055751;28;20032;-90
2022/05/02 06:31:31;;;;;;;13.93;8.25;;;10.20;99.90;;;;;;5037963;28;20031;-90
2022/05/02 06:33:57;;;;;;;14.10;10.25;;;10.20;99.90;;;;;;5055677;28;20501;-90
2022/05/02 06:37:04;;;;;;;22.95;10.27;;;10.20;99.90;;;;;;5055734;28;20389;-90
2022/05/02 06:46:39;;;;;;;11.70;8.50;;;10.30;99.90;;;;;;4996419;28;20529;-90
2022/05/02 06:49:10;;;;;;;16.48;9.20;;;10.30;99.90;;;;;;5022060;28;20075;-90
2022/05/02 06:51:40;;;;;;;12.38;8.65;;;10.40;99.90;;;;;;5037377;28;20029;-90
2022/05/02 06:54:11;;;;;;;16.30;10.13;;;10.40;99.90;;;;;;5037688;28;20052;-90
2022/05/02 06:56:45;;;;;;;12.25;8.48;;;10.40;99.90;;;;;;5055386;28;20025;-90
2022/05/02 06:59:40;;;;;;;14.00;8.70;;;10.40;99.90;;;;;;5055036;28;20472;-90
2022/05/02 07:02:11;;;;;;;16.15;9.27;;;10.50;99.90;;;;;;5055352;28;20534;-90
2022/05/02 07:04:49;;;;;;;13.90;8.65;;;10.50;99.90;;;;;;5053955;28;20021;-91
2022/05/02 07:07:52;;;;;;;11.07;7.93;;;10.50;99.90;;;;;;5037238;28;20029;-90
2022/05/02 07:10:23;;;;;;;12.27;7.53;;;10.60;99.90;;;;;;5037906;28;20024;-90
2022/05/02 07:13:18;;;;;;;17.17;7.78;;;10.60;99.90;;;;;;5053515;28;20025;-90
2022/05/02 07:15:48;;;;;;;13.65;7.20;;;10.70;99.90;;;;;;5053462;28;20028;-90
2022/05/02 07:18:45;;;;;;;17.67;9.20;;;10.70;99.90;;;;;;5054772;28;20027;-89
2022/05/02 07:21:29;;;;;;;17.33;8.57;;;10.80;99.90;;;;;;5054894;28;20024;-90
2022/05/02 07:24:23;;;;;;;16.63;7.22;;;10.80;99.90;;;;;;5053473;28;20488;-90
2022/05/02 07:27:10;;;;;;;16.42;9.07;;;10.90;99.90;;;;;;5036641;28;20041;-90
2022/05/02 07:29:37;;;;;;;21.30;8.90;;;10.90;99.90;;;;;;5054567;28;20053;-90
2022/05/02 07:32:09;;;;;;;15.52;9.25;;;11.00;99.90;;;;;;5036985;28;20036;-90
2022/05/02 07:34:37;;;;;;;14.65;9.25;;;11.00;99.90;;;;;;5036716;28;20020;-90
2022/05/02 07:37:29;;;;;;;14.88;8.48;;;11.10;99.90;;;;;;5036753;28;20489;-90
2022/05/02 07:39:56;;;;;;;14.75;9.20;;;11.10;99.90;;;;;;5054526;28;20472;-90
2022/05/02 07:42:30;;;;;;;10.98;8.07;;;11.20;99.90;;;;;;5052843;28;20028;-90
2022/05/02 07:45:00;;;;;;;12.82;8.57;;;11.10;99.90;;;;;;5054349;28;20584;-90
2022/05/02 07:47:42;;;;;;;20.83;9.70;;;11.20;99.90;;;;;;5054458;28;20017;-91
2022/05/02 07:50:10;;;;;;;12.55;9.27;;;11.20;99.90;;;;;;5054334;28;20025;-90
2022/05/02 07:52:41;;;;;;;19.63;9.32;;;11.30;99.90;;;;;;5054163;28;20028;-91
2022/05/02 07:55:08;;;;;;;20.55;10.15;;;11.30;99.90;;;;;;5054386;28;20028;-91
2022/05/02 07:57:38;;;;;;;15.20;9.20;;;11.30;99.90;;;;;;5053707;28;20508;-91
2022/05/02 08:00:07;;;;;;;18.50;10.52;;;11.30;99.90;;;;;;5054108;28;20523;-91
2022/05/02 08:02:37;;;;;;;14.48;9.07;;;11.30;99.90;;;;;;5036118;28;20040;-90
2022/05/02 08:05:07;;;;;;;15.50;9.40;;;11.30;99.90;;;;;;5036387;28;20029;-91
2022/05/02 08:07:43;;;;;;;16.23;9.38;;;11.40;99.90;;;;;;5036393;28;20032;-90
2022/05/02 08:13:35;;;;;;;20.88;10.30;;;11.40;99.90;;;;;;5053868;28;20036;-91
2022/05/02 08:16:12;;;;;;;14.25;8.63;;;11.40;99.90;;;;;;5053803;28;20021;-90
2022/05/02 08:28:07;;;;;;;24.48;11.25;;;11.50;99.90;;;;;;5053408;28;20033;-91
2022/05/02 08:30:58;;;;;;;18.00;9.50;;;11.50;99.90;;;;;;5053145;28;20036;-90
2022/05/02 08:33:26;;;;;;;19.20;10.00;;;11.50;99.90;;;;;;5053444;28;20028;-90
2022/05/02 08:36:20;;;;;;;20.85;10.60;;;11.50;99.90;;;;;;5053429;28;20507;-90
2022/05/02 08:39:01;;;;;;;19.05;10.57;;;11.50;99.90;;;;;;5053370;28;20021;-90
2022/05/02 08:41:45;;;;;;;22.05;10.77;;;11.60;99.90;;;;;;5035555;28;20477;-90
2022/05/02 08:44:29;;;;;;;15.40;9.18;;;11.60;99.90;;;;;;5052118;28;20032;-90
2022/05/02 08:47:13;;;;;;;15.85;8.75;;;11.60;99.90;;;;;;5052034;28;20024;-91
2022/05/02 08:50:19;;;;;;;14.35;7.93;;;11.70;99.90;;;;;;5052087;28;20384;-90
2022/05/02 08:53:37;;;;;;;13.85;8.18;;;11.80;99.90;;;;;;5035338;28;20025;-91
2022/05/02 08:56:10;;;;;;;17.90;8.82;;;11.80;99.90;;;;;;5035672;28;20094;-90
2022/05/02 08:59:17;;;;;;;17.90;9.05;;;11.80;99.90;;;;;;5051617;28;20028;-91
2022/05/02 09:02:06;;;;;;;14.98;8.18;;;11.80;99.90;;;;;;5053218;28;20056;-91
2022/05/02 09:05:09;;;;;;;17.55;9.20;;;11.90;99.90;;;;;;5052943;28;20366;-91
2022/05/02 09:08:08;;;;;;;22.45;9.10;;;11.90;99.90;;;;;;5052106;28;20384;-91
2022/05/02 09:10:39;;;;;;;13.73;8.52;;;12.00;99.90;;;;;;5053200;28;20017;-90
2022/05/02 09:13:39;;;;;;;15.98;8.15;;;12.00;99.90;;;;;;5051481;28;20051;-91
2022/05/02 09:16:42;;;;;;;13.45;8.85;;;12.10;99.90;;;;;;5051805;28;20048;-91
2022/05/02 09:19:35;;;;;;;13.52;8.30;;;12.10;99.90;;;;;;5051842;28;20032;-91
2022/05/02 09:22:01;;;;;;;14.27;7.53;;;12.10;99.90;;;;;;5052942;28;20509;-91
2022/05/02 09:25:10;;;;;;;14.07;8.00;;;12.20;99.90;;;;;;5051534;28;20025;-91
2022/05/02 09:27:57;;;;;;;16.67;9.43;;;12.20;99.90;;;;;;5051452;28;20495;-91
2022/05/02 09:33:56;;;;;;;15.13;8.32;;;12.40;99.90;;;;;;5052446;28;20111;-91
2022/05/02 09:36:43;;;;;;;13.88;8.95;;;12.40;99.90;;;;;;5051766;28;20028;-91
2022/05/02 09:39:14;;;;;;;15.00;8.45;;;12.50;99.90;;;;;;5034685;28;20477;-92
2022/05/02 09:42:07;;;;;;;10.45;7.53;;;12.60;99.90;;;;;;5034667;28;20389;-91
2022/05/02 09:51:13;;;;;;;22.58;7.88;;;12.70;99.90;;;;;;5052898;28;20051;-91
2022/05/02 09:54:05;;;;;;;26.45;8.63;;;12.80;99.90;;;;;;5055499;28;20021;-91
2022/05/02 09:56:49;;;;;;;12.15;6.82;;;12.80;99.90;;;;;;5055573;28;20029;-91
2022/05/02 09:59:26;;;;;;;13.70;7.65;;;12.90;99.90;;;;;;5039151;28;20469;-91
2022/05/02 10:02:18;;;;;;;19.13;9.45;;;12.90;99.90;;;;;;5055713;28;20021;-92
2022/05/02 10:05:25;;;;;;;17.73;8.52;;;13.00;99.90;;;;;;5055016;28;20037;-91
2022/05/02 10:08:22;;;;;;;13.77;8.45;;;13.10;99.90;;;;;;5056581;28;20495;-91
2022/05/02 10:11:20;;;;;;;16.83;9.10;;;13.30;99.90;;;;;;5055118;28;20507;-91
2022/05/02 10:14:14;;;;;;;20.10;8.55;;;13.40;99.90;;;;;;5055035;28;20017;-91
2022/05/02 10:16:50;;;;;;;14.38;8.77;;;13.50;99.90;;;;;;5054907;28;20052;-92
2022/05/02 10:19:24;;;;;;;15.55;7.95;;;13.60;99.90;;;;;;5038704;28;20029;-92
2022/05/02 10:22:24;;;;;;;16.80;9.02;;;13.80;99.90;;;;;;5055193;28;20055;-93
2022/05/02 10:25:31;;;;;;;13.13;8.90;;;13.80;99.90;;;;;;5055210;28;20029;-92
2022/05/02 10:28:30;;;;;;;12.40;7.95;;;13.90;99.90;;;;;;5056209;28;20053;-93
2022/05/02 10:31:09;;;;;;;14.45;8.68;;;14.10;99.90;;;;;;5057286;28;20020;-93
2022/05/02 10:33:54;;;;;;;15.55;8.75;;;14.20;99.90;;;;;;5056819;28;20025;-92
2022/05/02 10:36:48;;;;;;;17.90;8.95;;;14.30;99.90;;;;;;5040298;28;20087;-94
2022/05/02 10:39:53;;;;;;;17.50;9.90;;;14.40;99.90;;;;;;5055799;28;20052;-93
2022/05/02 10:42:25;;;;;;;18.50;9.95;;;14.40;99.90;;;;;;5055156;28;20158;-93
2022/05/02 10:45:07;;;;;;;16.17;10.75;;;14.40;99.90;;;;;;5054870;28;20032;-93
2022/05/02 10:48:27;;;;;;;22.20;11.23;;;14.50;99.90;;;;;;5038180;28;20032;-93
2022/05/02 10:51:20;;;;;;;22.92;10.50;;;14.60;99.90;;;;;;5052128;28;20033;-93
2022/05/02 10:54:00;;;;;;;33.28;10.80;;;14.80;99.90;;;;;;5054656;28;20025;-92
2022/05/02 10:56:57;;;;;;;17.92;9.85;;;14.90;99.90;;;;;;5055997;28;20032;-93
2022/05/02 10:59:52;;;;;;;20.65;11.02;;;15.00;99.90;;;;;;5038479;28;20056;-93
2022/05/02 11:02:56;;;;;;;21.45;11.43;;;15.10;99.90;;;;;;5055204;28;20485;-93
2022/05/02 11:05:59;;;;;;;16.75;9.93;;;15.10;99.90;;;;;;5055268;28;20029;-93
2022/05/02 11:08:58;;;;;;;35.45;11.18;;;15.20;99.90;;;;;;5038668;28;20028;-94
2022/05/02 11:11:35;;;;;;;19.30;9.38;;;15.20;99.90;;;;;;5038544;28;20083;-93
2022/05/02 11:14:04;;;;;;;27.90;10.75;;;15.20;99.90;;;;;;5039275;28;20017;-94
2022/05/02 11:16:55;;;;;;;24.17;9.75;;;15.20;99.90;;;;;;5055412;28;20033;-93
2022/05/02 11:23:02;;;;;;;12.82;8.43;;;15.30;99.90;;;;;;5022099;28;20114;-94
2022/05/02 11:26:05;;;;;;;16.10;9.05;;;15.40;99.90;;;;;;5035735;28;20521;-95
2022/05/02 11:32:17;;;;;;;24.58;9.45;;;15.50;99.90;;;;;;5037100;28;20138;-95
2022/05/02 11:35:07;;;;;;;13.90;8.85;;;15.60;99.90;;;;;;5035680;28;20029;-94
2022/05/02 11:37:43;;;;;;;24.63;9.20;;;15.60;99.90;;;;;;5034978;28;20029;-94
2022/05/02 11:40:10;;;;;;;;;;;15.70;99.90;;;;;;5035482;28;20021;-93
2022/05/02 11:42:42;;;;;;;14.90;8.35;;;15.70;99.90;;;;;;5035307;28;20368;-94
2022/05/02 11:52:28;;;;;;;22.20;8.80;;;16.00;99.90;;;;;;5037010;28;20091;-95
2022/05/02 11:54:56;;;;;;;9.73;7.10;;;16.00;99.90;;;;;;5035032;28;20109;-94
2022/05/02 11:57:48;;;;;;;11.93;8.25;;;16.00;99.90;;;;;;5035276;28;20029;-94
2022/05/02 12:00:15;;;;;;;13.15;7.40;;;16.10;99.90;;;;;;5035088;28;20076;-95
2022/05/02 12:03:04;;;;;;;19.77;8.90;;;16.10;99.90;;;;;;5034015;28;20029;-94
2022/05/02 12:06:01;;;;;;;18.45;8.75;;;16.20;99.90;;;;;;5035336;28;20053;-95
2022/05/02 12:09:03;;;;;;;12.73;7.70;;;16.30;99.90;;;;;;5027261;28;20389;-95
2022/05/02 12:11:30;;;;;;;11.50;8.15;;;16.40;99.90;;;;;;5034225;28;20030;-95
2022/05/02 12:14:04;;;;;;;15.30;8.60;;;16.40;99.90;;;;;;5034845;28;20028;-94
2022/05/02 12:16:33;;;;;;;13.18;7.88;;;16.40;99.90;;;;;;5035298;28;20036;-95
2022/05/02 12:19:30;;;;;;;13.52;7.35;;;16.50;99.90;;;;;;5034560;28;20504;-94
2022/05/02 12:21:57;;;;;;;12.85;7.00;;;16.60;99.90;;;;;;5034693;28;20500;-94
2022/05/02 12:24:48;;;;;;;17.02;8.38;;;16.60;99.90;;;;;;5035111;28;20428;-95
2022/05/02 12:27:14;;;;;;;16.13;7.30;;;16.80;99.90;;;;;;5035255;28;20069;-96
2022/05/02 12:29:42;;;;;;;16.45;7.53;;;16.80;99.90;;;;;;5034766;28;20433;-95
2022/05/02 12:35:44;;;;;;;19.08;7.60;;;16.90;99.90;;;;;;5037116;28;20167;-94
2022/05/02 12:44:52;;;;;;;12.25;6.78;;;17.00;99.90;;;;;;4995186;28;20049;-94
2022/05/02 12:50:54;;;;;;;11.32;6.75;;;17.10;99.90;;;;;;4994514;28;20423;-94
2022/05/02 13:00:30;;;;;;;16.95;7.28;;;17.20;99.90;;;;;;4994803;28;20049;-95
2022/05/02 13:03:02;;;;;;;14.98;7.25;;;17.20;99.90;;;;;;4981958;28;20022;-96
2022/05/02 13:05:31;;;;;;;12.38;6.90;;;17.30;99.90;;;;;;4979075;28;20035;-95
2022/05/02 13:08:19;;;;;;;15.48;7.53;;;17.30;99.90;;;;;;4978041;28;20022;-96
2022/05/02 13:10:49;;;;;;;12.10;6.75;;;17.30;99.90;;;;;;4979486;28;20019;-96
2022/05/02 13:13:17;;;;;;;10.90;6.53;;;17.40;99.90;;;;;;4978673;28;20037;-95
2022/05/02 13:19:06;;;;;;;14.38;7.30;;;17.50;99.90;;;;;;5039652;28;20118;-94
2022/05/02 13:21:32;;;;;;;12.88;7.38;;;17.50;99.90;;;;;;5036886;28;20037;-95
2022/05/02 13:24:09;;;;;;;18.92;7.40;;;17.60;99.90;;;;;;5036876;28;20441;-95
2022/05/02 13:27:05;;;;;;;12.55;6.38;;;17.60;99.90;;;;;;5035552;28;20033;-94
2022/05/02 13:29:58;;;;;;;17.80;7.20;;;17.60;99.90;;;;;;5052656;28;20503;-95
2022/05/02 13:36:14;;;;;;;20.67;7.63;;;17.80;99.90;;;;;;5055230;28;20078;-96
2022/05/02 13:38:59;;;;;;;9.93;6.88;;;17.80;99.90;;;;;;5050245;28;20033;-95
2022/05/02 13:42:32;;;;;;;9.45;6.40;;;17.80;99.90;;;;;;5052888;28;20104;-96
2022/05/02 13:45:02;;;;;;;12.30;7.10;;;17.80;99.90;;;;;;5053748;28;20029;-96
2022/05/02 13:48:27;;;;;;;12.15;6.28;;;17.80;99.90;;;;;;5036058;28;20032;-95
2022/05/02 13:58:07;;;;;;;12.82;6.40;;;17.90;99.90;;;;;;4993364;28;20105;-94
2022/05/02 14:04:18;;;;;;;13.60;7.88;;;18.00;99.90;;;;;;4993120;28;20118;-94
2022/05/02 14:07:01;;;;;;;13.20;6.03;;;18.00;99.40;;;;;;4992497;28;20046;-94
2022/05/02 14:09:44;;;;;;;16.80;7.07;;;18.00;99.90;;;;;;4989660;28;20106;-95
2022/05/02 14:12:30;;;;;;;16.58;6.80;;;18.10;99.90;;;;;;4992702;28;20022;-95
2022/05/02 14:15:15;;;;;;;8.27;5.88;;;18.10;98.50;;;;;;5024208;28;20061;-96
2022/05/02 14:20:35;;;;;;;18.13;8.68;;;18.20;99.50;;;;;;5053538;28;20095;-95
2022/05/02 14:23:07;;;;;;;13.23;7.25;;;18.20;99.30;;;;;;5053719;28;20048;-94
2022/05/02 14:25:42;;;;;;;20.13;6.90;;;18.20;98.30;;;;;;5052322;28;20046;-95
2022/05/02 14:28:15;;;;;;;15.65;6.43;;;18.20;98.00;;;;;;5035871;28;20539;-93
2022/05/02 14:30:47;;;;;;;12.30;6.65;;;18.30;96.80;;;;;;5053378;28;20424;-94
2022/05/02 14:33:53;;;;;;;14.93;6.65;;;18.30;96.60;;;;;;5036125;28;20079;-94
2022/05/02 14:36:19;;;;;;;;;;;18.30;98.10;;;;;;5052823;28;20374;-94
2022/05/02 14:38:57;;;;;;;10.80;6.80;;;18.30;98.70;;;;;;5055622;28;19922;-95
2022/05/02 14:41:23;;;;;;;11.93;7.30;;;18.30;97.00;;;;;;5039282;28;20123;-94
2022/05/02 14:43:53;;;;;;;9.90;5.63;;;18.40;96.90;;;;;;5038659;28;20103;-94
2022/05/02 14:46:24;;;;;;;14.98;6.82;;;18.40;97.70;;;;;;5039203;28;20029;-93
2022/05/02 14:48:51;;;;;;;14.07;7.15;;;18.40;96.90;;;;;;5039095;28;20027;-94
2022/05/02 14:51:28;;;;;;;10.95;6.35;;;18.40;97.40;;;;;;5055914;28;20108;-94
2022/05/02 14:53:57;;;;;;;14.55;6.57;;;18.40;99.90;;;;;;5038942;28;20029;-94
2022/05/02 14:56:54;;;;;;;10.63;6.25;;;18.50;98.20;;;;;;5038713;28;20021;-94
2022/05/02 15:00:00;;;;;;;13.98;6.18;;;18.50;98.40;;;;;;5055356;28;20123;-94
2022/05/02 15:02:29;;;;;;;16.45;7.88;;;18.50;97.60;;;;;;5056657;28;20074;-94
2022/05/02 15:05:07;;;;;;;11.52;5.95;;;18.50;96.30;;;;;;5054890;28;20033;-94
2022/05/02 15:08:12;;;;;;;12.65;5.80;;;18.40;95.70;;;;;;5055183;28;20021;-93
2022/05/02 15:10:54;;;;;;;10.75;5.85;;;18.30;97.70;;;;;;5053840;28;20072;-94
2022/05/02 15:13:57;;;;;;;11.68;6.50;;;18.20;98.60;;;;;;5056191;28;20071;-94
2022/05/02 15:16:44;;;;;;;11.07;5.72;;;18.20;97.90;;;;;;5055268;28;20043;-95